sensor_id;sensor_type;location;lat;lon;timestamp;P1;durP1;ratioP1;P2;durP2;ratioP2
19402;SDS011;9837;48.888;8.998;2023-07-29T00:00:51;3.00;;;1.70;;
19402;SDS011;9837;48.888;8.998;2023-07-29T00:03:17;3.73;;;1.70;;
19402;SDS011;9837;48.888;8.998;2023-07-29T00:05:43;2.37;;;1.83;;
19402;SDS011;9837;48.888;8.998;2023-07-29T00:08:09;2.30;;;1.90;;
19402;SDS011;9837;48.888;8.998;2023-07-29T00:10:36;1.57;;;1.17;;
19402;SDS011;9837;48.888;8.998;2023-07-29T00:13:03;2.50;;;1.30;;
19402;SDS011;9837;48.888;8.998;2023-07-29T00:15:29;4.37;;;1.63;;
19402;SDS011;9837;48.888;8.998;2023-07-29T00:17:55;2.03;;;1.20;;
19402;SDS011;9837;48.888;8.998;2023-07-29T00:20:21;3.37;;;1.40;;
19402;SDS011;9837;48.888;8.998;2023-07-29T00:22:47;2.13;;;1.20;;
19402;SDS011;9837;48.888;8.998;2023-07-29T00:25:19;1.30;;;1.20;;
19402;SDS011;9837;48.888;8.998;2023-07-29T00:27:48;3.20;;;1.50;;
19402;SDS011;9837;48.888;8.998;2023-07-29T00:30:14;3.07;;;1.40;;
19402;SDS011;9837;48.888;8.998;2023-07-29T00:32:40;2.93;;;1.40;;
19402;SDS011;9837;48.888;8.998;2023-07-29T00:35:06;1.83;;;1.63;;
19402;SDS011;9837;48.888;8.998;2023-07-29T00:37:32;3.53;;;1.40;;
19402;SDS011;9837;48.888;8.998;2023-07-29T00:39:59;1.50;;;1.40;;
19402;SDS011;9837;48.888;8.998;2023-07-29T00:42:25;1.80;;;1.17;;
19402;SDS011;9837;48.888;8.998;2023-07-29T00:44:51;2.50;;;1.33;;
19402;SDS011;9837;48.888;8.998;2023-07-29T00:47:17;2.53;;;1.53;;
19402;SDS011;9837;48.888;8.998;2023-07-29T00:49:43;3.23;;;1.43;;
19402;SDS011;9837;48.888;8.998;2023-07-29T00:52:10;1.30;;;1.10;;
19402;SDS011;9837;48.888;8.998;2023-07-29T01:10:58;2.20;;;1.50;;
19402;SDS011;9837;48.888;8.998;2023-07-29T01:16:44;1.83;;;1.10;;
19402;SDS011;9837;48.888;8.998;2023-07-29T01:25:45;1.40;;;1.30;;
19402;SDS011;9837;48.888;8.998;2023-07-29T04:36:41;5.13;;;2.07;;
19402;SDS011;9837;48.888;8.998;2023-07-29T04:39:07;4.90;;;2.07;;
19402;SDS011;9837;48.888;8.998;2023-07-29T04:41:34;3.67;;;1.97;;
19402;SDS011;9837;48.888;8.998;2023-07-29T04:44:00;3.47;;;2.00;;
19402;SDS011;9837;48.888;8.998;2023-07-29T04:46:26;5.93;;;2.10;;
19402;SDS011;9837;48.888;8.998;2023-07-29T04:48:52;3.83;;;1.73;;
19402;SDS011;9837;48.888;8.998;2023-07-29T04:54:19;3.57;;;1.90;;
19402;SDS011;9837;48.888;8.998;2023-07-29T04:56:46;5.73;;;2.00;;
19402;SDS011;9837;48.888;8.998;2023-07-29T04:59:12;3.23;;;1.80;;
19402;SDS011;9837;48.888;8.998;2023-07-29T05:01:38;2.67;;;1.80;;
19402;SDS011;9837;48.888;8.998;2023-07-29T05:04:04;2.17;;;1.70;;
19402;SDS011;9837;48.888;8.998;2023-07-29T05:06:31;2.70;;;1.90;;
19402;SDS011;9837;48.888;8.998;2023-07-29T05:08:57;3.23;;;2.07;;
19402;SDS011;9837;48.888;8.998;2023-07-29T05:11:23;5.97;;;2.43;;
19402;SDS011;9837;48.888;8.998;2023-07-29T05:13:50;2.80;;;1.77;;
19402;SDS011;9837;48.888;8.998;2023-07-29T05:16:16;4.53;;;2.07;;
19402;SDS011;9837;48.888;8.998;2023-07-29T05:18:42;3.07;;;2.10;;
19402;SDS011;9837;48.888;8.998;2023-07-29T05:21:09;6.07;;;2.50;;
19402;SDS011;9837;48.888;8.998;2023-07-29T05:23:36;4.67;;;2.20;;
19402;SDS011;9837;48.888;8.998;2023-07-29T05:26:02;3.43;;;1.87;;
19402;SDS011;9837;48.888;8.998;2023-07-29T05:28:28;2.43;;;1.60;;
19402;SDS011;9837;48.888;8.998;2023-07-29T05:30:55;5.97;;;1.83;;
19402;SDS011;9837;48.888;8.998;2023-07-29T05:33:21;4.90;;;2.00;;
19402;SDS011;9837;48.888;8.998;2023-07-29T05:35:47;1.90;;;1.63;;
19402;SDS011;9837;48.888;8.998;2023-07-29T05:38:13;5.17;;;1.70;;
19402;SDS011;9837;48.888;8.998;2023-07-29T05:40:39;2.83;;;1.40;;
19402;SDS011;9837;48.888;8.998;2023-07-29T05:43:06;2.50;;;1.50;;
19402;SDS011;9837;48.888;8.998;2023-07-29T05:45:32;3.77;;;1.60;;
19402;SDS011;9837;48.888;8.998;2023-07-29T05:47:58;2.40;;;1.50;;
19402;SDS011;9837;48.888;8.998;2023-07-29T05:50:24;3.07;;;1.40;;
19402;SDS011;9837;48.888;8.998;2023-07-29T05:52:50;4.17;;;1.73;;
19402;SDS011;9837;48.888;8.998;2023-07-29T05:55:16;2.17;;;1.37;;
19402;SDS011;9837;48.888;8.998;2023-07-29T05:57:43;6.60;;;1.50;;
19402;SDS011;9837;48.888;8.998;2023-07-29T06:00:09;1.53;;;1.43;;
19402;SDS011;9837;48.888;8.998;2023-07-29T06:02:35;2.03;;;1.20;;
19402;SDS011;9837;48.888;8.998;2023-07-29T06:05:01;1.40;;;1.20;;
19402;SDS011;9837;48.888;8.998;2023-07-29T06:07:29;4.43;;;1.40;;
19402;SDS011;9837;48.888;8.998;2023-07-29T06:09:57;1.40;;;1.30;;
19402;SDS011;9837;48.888;8.998;2023-07-29T06:12:23;5.37;;;1.40;;
19402;SDS011;9837;48.888;8.998;2023-07-29T06:14:49;2.80;;;0.97;;
19402;SDS011;9837;48.888;8.998;2023-07-29T06:17:15;1.87;;;1.10;;
19402;SDS011;9837;48.888;8.998;2023-07-29T06:19:44;1.50;;;1.40;;
19402;SDS011;9837;48.888;8.998;2023-07-29T06:23:08;1.93;;;1.20;;
19402;SDS011;9837;48.888;8.998;2023-07-29T06:26:05;2.53;;;1.50;;
19402;SDS011;9837;48.888;8.998;2023-07-29T06:28:37;2.70;;;1.30;;
19402;SDS011;9837;48.888;8.998;2023-07-29T06:31:03;1.40;;;1.30;;
19402;SDS011;9837;48.888;8.998;2023-07-29T06:33:41;1.63;;;1.30;;
19402;SDS011;9837;48.888;8.998;2023-07-29T06:36:07;1.30;;;1.20;;
19402;SDS011;9837;48.888;8.998;2023-07-29T06:38:33;1.87;;;1.30;;
19402;SDS011;9837;48.888;8.998;2023-07-29T06:41:53;1.90;;;1.40;;
19402;SDS011;9837;48.888;8.998;2023-07-29T06:47:58;2.93;;;1.37;;
19402;SDS011;9837;48.888;8.998;2023-07-29T06:50:24;1.50;;;1.40;;
19402;SDS011;9837;48.888;8.998;2023-07-29T06:52:51;2.43;;;1.40;;
19402;SDS011;9837;48.888;8.998;2023-07-29T06:58:28;1.70;;;1.60;;
19402;SDS011;9837;48.888;8.998;2023-07-29T07:00:54;1.93;;;1.33;;
19402;SDS011;9837;48.888;8.998;2023-07-29T07:03:20;2.40;;;1.47;;
19402;SDS011;9837;48.888;8.998;2023-07-29T07:05:49;3.27;;;1.43;;
19402;SDS011;9837;48.888;8.998;2023-07-29T07:08:31;2.10;;;1.43;;
19402;SDS011;9837;48.888;8.998;2023-07-29T07:10:57;2.17;;;1.50;;
19402;SDS011;9837;48.888;8.998;2023-07-29T07:13:23;2.30;;;1.57;;
19402;SDS011;9837;48.888;8.998;2023-07-29T07:15:54;1.93;;;1.73;;
19402;SDS011;9837;48.888;8.998;2023-07-29T07:18:23;2.47;;;1.53;;
19402;SDS011;9837;48.888;8.998;2023-07-29T07:20:49;2.17;;;1.70;;
19402;SDS011;9837;48.888;8.998;2023-07-29T07:23:16;1.50;;;1.40;;
19402;SDS011;9837;48.888;8.998;2023-07-29T07:25:42;6.63;;;1.93;;
19402;SDS011;9837;48.888;8.998;2023-07-29T07:28:08;1.60;;;1.50;;
19402;SDS011;9837;48.888;8.998;2023-07-29T07:30:59;1.73;;;1.63;;
19402;SDS011;9837;48.888;8.998;2023-07-29T07:33:25;1.43;;;1.33;;
19402;SDS011;9837;48.888;8.998;2023-07-29T07:35:54;1.67;;;1.40;;
19402;SDS011;9837;48.888;8.998;2023-07-29T07:38:20;1.57;;;1.40;;
19402;SDS011;9837;48.888;8.998;2023-07-29T07:40:56;1.73;;;1.50;;
19402;SDS011;9837;48.888;8.998;2023-07-29T07:43:22;1.60;;;1.50;;
19402;SDS011;9837;48.888;8.998;2023-07-29T07:45:48;6.47;;;2.40;;
19402;SDS011;9837;48.888;8.998;2023-07-29T07:48:14;3.37;;;1.63;;
19402;SDS011;9837;48.888;8.998;2023-07-29T07:50:46;1.97;;;1.53;;
19402;SDS011;9837;48.888;8.998;2023-07-29T07:53:12;1.40;;;1.30;;
19402;SDS011;9837;48.888;8.998;2023-07-29T07:55:38;2.47;;;1.70;;
19402;SDS011;9837;48.888;8.998;2023-07-29T07:58:07;2.22;;;1.58;;
19402;SDS011;9837;48.888;8.998;2023-07-29T08:00:33;4.28;;;1.40;;
19402;SDS011;9837;48.888;8.998;2023-07-29T08:03:02;1.27;;;1.17;;
19402;SDS011;9837;48.888;8.998;2023-07-29T08:05:28;1.30;;;1.20;;
19402;SDS011;9837;48.888;8.998;2023-07-29T08:07:54;1.40;;;1.30;;
19402;SDS011;9837;48.888;8.998;2023-07-29T08:10:23;5.95;;;1.52;;
19402;SDS011;9837;48.888;8.998;2023-07-29T08:12:49;1.65;;;1.40;;
19402;SDS011;9837;48.888;8.998;2023-07-29T08:15:15;1.50;;;1.40;;
19402;SDS011;9837;48.888;8.998;2023-07-29T08:17:41;1.48;;;1.25;;
19402;SDS011;9837;48.888;8.998;2023-07-29T08:20:07;2.22;;;1.10;;
19402;SDS011;9837;48.888;8.998;2023-07-29T08:22:34;2.78;;;1.15;;
19402;SDS011;9837;48.888;8.998;2023-07-29T08:25:00;2.58;;;1.23;;
19402;SDS011;9837;48.888;8.998;2023-07-29T08:27:26;2.83;;;1.30;;
19402;SDS011;9837;48.888;8.998;2023-07-29T08:29:53;1.30;;;1.20;;
19402;SDS011;9837;48.888;8.998;2023-07-29T08:32:19;2.67;;;1.30;;
19402;SDS011;9837;48.888;8.998;2023-07-29T08:34:45;2.15;;;1.52;;
19402;SDS011;9837;48.888;8.998;2023-07-29T08:37:11;1.42;;;1.33;;
19402;SDS011;9837;48.888;8.998;2023-07-29T08:39:38;1.42;;;1.33;;
19402;SDS011;9837;48.888;8.998;2023-07-29T08:42:04;1.98;;;1.38;;
19402;SDS011;9837;48.888;8.998;2023-07-29T08:44:40;4.00;;;1.52;;
19402;SDS011;9837;48.888;8.998;2023-07-29T08:47:07;3.38;;;1.30;;
19402;SDS011;9837;48.888;8.998;2023-07-29T08:49:33;1.52;;;1.30;;
19402;SDS011;9837;48.888;8.998;2023-07-29T08:51:59;1.00;;;0.90;;
19402;SDS011;9837;48.888;8.998;2023-07-29T08:54:25;2.63;;;1.65;;
19402;SDS011;9837;48.888;8.998;2023-07-29T08:56:51;1.48;;;1.38;;
19402;SDS011;9837;48.888;8.998;2023-07-29T08:59:17;2.88;;;1.15;;
19402;SDS011;9837;48.888;8.998;2023-07-29T09:01:44;2.88;;;1.25;;
19402;SDS011;9837;48.888;8.998;2023-07-29T09:04:10;1.30;;;1.20;;
19402;SDS011;9837;48.888;8.998;2023-07-29T09:06:36;1.98;;;1.42;;
19402;SDS011;9837;48.888;8.998;2023-07-29T09:09:03;3.13;;;2.83;;
19402;SDS011;9837;48.888;8.998;2023-07-29T09:11:30;3.95;;;1.50;;
19402;SDS011;9837;48.888;8.998;2023-07-29T09:13:56;1.40;;;1.30;;
19402;SDS011;9837;48.888;8.998;2023-07-29T09:16:22;2.05;;;1.30;;
19402;SDS011;9837;48.888;8.998;2023-07-29T09:18:49;1.63;;;1.20;;
19402;SDS011;9837;48.888;8.998;2023-07-29T09:21:23;1.30;;;1.20;;
19402;SDS011;9837;48.888;8.998;2023-07-29T09:23:53;2.58;;;1.60;;
19402;SDS011;9837;48.888;8.998;2023-07-29T09:26:23;1.75;;;1.30;;
19402;SDS011;9837;48.888;8.998;2023-07-29T09:28:56;7.97;;;3.20;;
19402;SDS011;9837;48.888;8.998;2023-07-29T09:31:23;2.95;;;1.30;;
19402;SDS011;9837;48.888;8.998;2023-07-29T09:33:55;2.17;;;1.35;;
19402;SDS011;9837;48.888;8.998;2023-07-29T09:36:25;1.63;;;1.40;;
19402;SDS011;9837;48.888;8.998;2023-07-29T09:38:56;1.50;;;1.40;;
19402;SDS011;9837;48.888;8.998;2023-07-29T09:41:23;1.35;;;1.25;;
19402;SDS011;9837;48.888;8.998;2023-07-29T09:43:54;2.47;;;1.13;;
19402;SDS011;9837;48.888;8.998;2023-07-29T09:46:24;2.20;;;1.27;;
19402;SDS011;9837;48.888;8.998;2023-07-29T09:49:04;1.40;;;1.27;;
19402;SDS011;9837;48.888;8.998;2023-07-29T09:51:47;2.67;;;1.60;;
19402;SDS011;9837;48.888;8.998;2023-07-29T09:54:13;2.42;;;1.50;;
19402;SDS011;9837;48.888;8.998;2023-07-29T09:56:41;1.30;;;1.20;;
19402;SDS011;9837;48.888;8.998;2023-07-29T09:59:25;2.67;;;1.40;;
19402;SDS011;9837;48.888;8.998;2023-07-29T10:01:51;1.40;;;1.30;;
19402;SDS011;9837;48.888;8.998;2023-07-29T10:04:17;1.50;;;1.40;;
19402;SDS011;9837;48.888;8.998;2023-07-29T10:07:18;2.67;;;1.30;;
19402;SDS011;9837;48.888;8.998;2023-07-29T10:09:45;2.07;;;1.30;;
19402;SDS011;9837;48.888;8.998;2023-07-29T10:12:11;2.73;;;1.50;;
19402;SDS011;9837;48.888;8.998;2023-07-29T10:14:39;2.93;;;1.57;;
19402;SDS011;9837;48.888;8.998;2023-07-29T10:17:05;1.53;;;1.43;;
19402;SDS011;9837;48.888;8.998;2023-07-29T10:19:31;1.20;;;1.10;;
19402;SDS011;9837;48.888;8.998;2023-07-29T10:22:00;1.40;;;1.20;;
19402;SDS011;9837;48.888;8.998;2023-07-29T10:24:32;1.20;;;1.10;;
19402;SDS011;9837;48.888;8.998;2023-07-29T10:26:59;3.33;;;2.07;;
19402;SDS011;9837;48.888;8.998;2023-07-29T10:29:49;1.70;;;1.23;;
19402;SDS011;9837;48.888;8.998;2023-07-29T10:32:14;1.80;;;1.00;;
19402;SDS011;9837;48.888;8.998;2023-07-29T10:34:41;1.00;;;1.00;;
19402;SDS011;9837;48.888;8.998;2023-07-29T10:37:17;1.83;;;1.20;;
19402;SDS011;9837;48.888;8.998;2023-07-29T10:39:54;1.50;;;1.30;;
19402;SDS011;9837;48.888;8.998;2023-07-29T10:42:27;1.40;;;1.20;;
19402;SDS011;9837;48.888;8.998;2023-07-29T10:45:39;2.60;;;1.27;;
19402;SDS011;9837;48.888;8.998;2023-07-29T10:48:11;1.13;;;1.08;;
19402;SDS011;9837;48.888;8.998;2023-07-29T10:50:38;1.00;;;0.93;;
19402;SDS011;9837;48.888;8.998;2023-07-29T10:53:04;2.33;;;1.20;;
19402;SDS011;9837;48.888;8.998;2023-07-29T10:55:34;0.80;;;0.80;;
19402;SDS011;9837;48.888;8.998;2023-07-29T10:58:13;5.00;;;0.95;;
19402;SDS011;9837;48.888;8.998;2023-07-29T11:00:44;0.70;;;0.70;;
19402;SDS011;9837;48.888;8.998;2023-07-29T11:03:13;0.77;;;0.68;;
19402;SDS011;9837;48.888;8.998;2023-07-29T11:05:43;1.40;;;0.90;;
19402;SDS011;9837;48.888;8.998;2023-07-29T11:08:30;1.10;;;1.00;;
19402;SDS011;9837;48.888;8.998;2023-07-29T11:11:49;1.00;;;1.00;;
19402;SDS011;9837;48.888;8.998;2023-07-29T11:15:28;0.77;;;0.77;;
19402;SDS011;9837;48.888;8.998;2023-07-29T11:18:39;1.25;;;1.10;;
19402;SDS011;9837;48.888;8.998;2023-07-29T11:21:53;0.90;;;0.90;;
19402;SDS011;9837;48.888;8.998;2023-07-29T11:24:59;1.00;;;1.00;;
19402;SDS011;9837;48.888;8.998;2023-07-29T11:27:25;1.70;;;1.05;;
19402;SDS011;9837;48.888;8.998;2023-07-29T11:30:13;1.50;;;1.02;;
19402;SDS011;9837;48.888;8.998;2023-07-29T11:36:34;0.93;;;0.93;;
19402;SDS011;9837;48.888;8.998;2023-07-29T11:39:08;1.83;;;1.17;;
19402;SDS011;9837;48.888;8.998;2023-07-29T11:45:47;1.05;;;1.02;;
19402;SDS011;9837;48.888;8.998;2023-07-29T11:48:39;1.42;;;1.33;;
19402;SDS011;9837;48.888;8.998;2023-07-29T11:52:09;2.28;;;1.50;;
19402;SDS011;9837;48.888;8.998;2023-07-29T11:55:40;1.60;;;1.40;;
19402;SDS011;9837;48.888;8.998;2023-07-29T11:58:32;3.45;;;1.15;;
19402;SDS011;9837;48.888;8.998;2023-07-29T12:01:01;2.90;;;1.50;;
19402;SDS011;9837;48.888;8.998;2023-07-29T12:07:48;1.33;;;1.20;;
19402;SDS011;9837;48.888;8.998;2023-07-29T12:10:36;1.40;;;1.30;;
19402;SDS011;9837;48.888;8.998;2023-07-29T12:13:57;1.40;;;1.30;;
19402;SDS011;9837;48.888;8.998;2023-07-29T12:20:46;1.70;;;1.60;;
19402;SDS011;9837;48.888;8.998;2023-07-29T12:23:52;2.03;;;1.50;;
19402;SDS011;9837;48.888;8.998;2023-07-29T12:26:21;2.35;;;1.60;;
19402;SDS011;9837;48.888;8.998;2023-07-29T12:29:10;3.65;;;1.63;;
19402;SDS011;9837;48.888;8.998;2023-07-29T12:32:14;1.50;;;1.40;;
19402;SDS011;9837;48.888;8.998;2023-07-29T12:34:40;2.22;;;1.73;;
19402;SDS011;9837;48.888;8.998;2023-07-29T12:37:16;4.53;;;1.80;;
19402;SDS011;9837;48.888;8.998;2023-07-29T12:39:51;2.58;;;1.98;;
19402;SDS011;9837;48.888;8.998;2023-07-29T12:42:16;2.25;;;1.60;;
19402;SDS011;9837;48.888;8.998;2023-07-29T12:49:02;1.60;;;1.50;;
19402;SDS011;9837;48.888;8.998;2023-07-29T12:54:23;1.80;;;1.48;;
19402;SDS011;9837;48.888;8.998;2023-07-29T12:56:55;1.83;;;1.55;;
19402;SDS011;9837;48.888;8.998;2023-07-29T12:59:30;1.73;;;1.63;;
19402;SDS011;9837;48.888;8.998;2023-07-29T13:03:19;1.58;;;1.48;;
19402;SDS011;9837;48.888;8.998;2023-07-29T13:19:01;1.60;;;1.50;;
19402;SDS011;9837;48.888;8.998;2023-07-29T13:21:27;1.92;;;1.40;;
19402;SDS011;9837;48.888;8.998;2023-07-29T13:23:53;1.63;;;1.52;;
19402;SDS011;9837;48.888;8.998;2023-07-29T13:26:19;2.17;;;1.50;;
19402;SDS011;9837;48.888;8.998;2023-07-29T13:28:45;2.00;;;1.40;;
19402;SDS011;9837;48.888;8.998;2023-07-29T13:57:00;2.03;;;1.50;;
19402;SDS011;9837;48.888;8.998;2023-07-29T13:59:26;1.80;;;1.70;;
19402;SDS011;9837;48.888;8.998;2023-07-29T14:25:13;2.33;;;1.92;;
19402;SDS011;9837;48.888;8.998;2023-07-29T15:26:02;2.53;;;1.90;;
19402;SDS011;9837;48.888;8.998;2023-07-29T15:52:39;2.10;;;1.90;;
19402;SDS011;9837;48.888;8.998;2023-07-29T15:58:00;3.50;;;2.10;;
19402;SDS011;9837;48.888;8.998;2023-07-29T16:00:28;2.55;;;1.90;;
19402;SDS011;9837;48.888;8.998;2023-07-29T16:02:56;2.63;;;2.03;;
19402;SDS011;9837;48.888;8.998;2023-07-29T16:05:29;2.80;;;1.95;;
19402;SDS011;9837;48.888;8.998;2023-07-29T16:07:59;1.88;;;1.70;;
19402;SDS011;9837;48.888;8.998;2023-07-29T16:13:05;3.33;;;1.80;;
19402;SDS011;9837;48.888;8.998;2023-07-29T16:15:31;3.60;;;2.03;;
19402;SDS011;9837;48.888;8.998;2023-07-29T16:17:58;2.95;;;2.03;;
19402;SDS011;9837;48.888;8.998;2023-07-29T16:20:43;2.35;;;1.98;;
19402;SDS011;9837;48.888;8.998;2023-07-29T16:23:09;3.25;;;2.22;;
19402;SDS011;9837;48.888;8.998;2023-07-29T16:25:41;1.80;;;1.70;;
19402;SDS011;9837;48.888;8.998;2023-07-29T16:28:10;1.90;;;1.80;;
19402;SDS011;9837;48.888;8.998;2023-07-29T16:35:50;3.08;;;1.90;;
19402;SDS011;9837;48.888;8.998;2023-07-29T16:38:17;2.17;;;1.98;;
19402;SDS011;9837;48.888;8.998;2023-07-29T16:41:03;2.38;;;1.80;;
19402;SDS011;9837;48.888;8.998;2023-07-29T16:43:29;2.03;;;1.90;;
19402;SDS011;9837;48.888;8.998;2023-07-29T16:45:55;2.13;;;1.90;;
19402;SDS011;9837;48.888;8.998;2023-07-29T16:48:26;2.00;;;1.90;;
19402;SDS011;9837;48.888;8.998;2023-07-29T16:50:53;2.20;;;2.00;;
19402;SDS011;9837;48.888;8.998;2023-07-29T16:53:21;2.00;;;1.80;;
19402;SDS011;9837;48.888;8.998;2023-07-29T16:55:50;1.85;;;1.65;;
19402;SDS011;9837;48.888;8.998;2023-07-29T16:58:19;2.00;;;1.80;;
19402;SDS011;9837;48.888;8.998;2023-07-29T17:00:48;3.67;;;1.80;;
19402;SDS011;9837;48.888;8.998;2023-07-29T17:03:14;1.95;;;1.70;;
19402;SDS011;9837;48.888;8.998;2023-07-29T17:05:43;2.00;;;1.90;;
19402;SDS011;9837;48.888;8.998;2023-07-29T17:08:09;1.73;;;1.63;;
19402;SDS011;9837;48.888;8.998;2023-07-29T17:10:35;3.28;;;1.70;;
19402;SDS011;9837;48.888;8.998;2023-07-29T17:13:01;3.00;;;2.05;;
19402;SDS011;9837;48.888;8.998;2023-07-29T17:15:30;3.05;;;1.77;;
19402;SDS011;9837;48.888;8.998;2023-07-29T17:18:00;3.35;;;1.95;;
19402;SDS011;9837;48.888;8.998;2023-07-29T17:20:29;2.33;;;2.13;;
19402;SDS011;9837;48.888;8.998;2023-07-29T17:23:18;1.90;;;1.67;;
19402;SDS011;9837;48.888;8.998;2023-07-29T17:25:44;2.03;;;1.70;;
19402;SDS011;9837;48.888;8.998;2023-07-29T17:28:10;2.20;;;1.90;;
19402;SDS011;9837;48.888;8.998;2023-07-29T17:30:56;4.32;;;1.63;;
19402;SDS011;9837;48.888;8.998;2023-07-29T17:33:25;2.20;;;1.90;;
19402;SDS011;9837;48.888;8.998;2023-07-29T17:35:51;2.03;;;1.80;;
19402;SDS011;9837;48.888;8.998;2023-07-29T17:38:37;1.90;;;1.80;;
19402;SDS011;9837;48.888;8.998;2023-07-29T17:41:08;2.63;;;1.90;;
19402;SDS011;9837;48.888;8.998;2023-07-29T17:43:34;4.18;;;1.80;;
19402;SDS011;9837;48.888;8.998;2023-07-29T17:46:23;2.20;;;1.90;;
19402;SDS011;9837;48.888;8.998;2023-07-29T17:51:25;2.25;;;1.85;;
19402;SDS011;9837;48.888;8.998;2023-07-29T17:53:51;1.70;;;1.60;;
19402;SDS011;9837;48.888;8.998;2023-07-29T17:56:17;1.88;;;1.60;;
19402;SDS011;9837;48.888;8.998;2023-07-29T17:58:58;1.90;;;1.70;;
19402;SDS011;9837;48.888;8.998;2023-07-29T18:01:28;2.03;;;1.80;;
19402;SDS011;9837;48.888;8.998;2023-07-29T18:06:30;1.50;;;1.40;;
19402;SDS011;9837;48.888;8.998;2023-07-29T18:08:57;1.70;;;1.60;;
19402;SDS011;9837;48.888;8.998;2023-07-29T18:11:26;2.05;;;1.95;;
19402;SDS011;9837;48.888;8.998;2023-07-29T18:14:07;2.08;;;1.73;;
19402;SDS011;9837;48.888;8.998;2023-07-29T18:16:33;1.60;;;1.50;;
19402;SDS011;9837;48.888;8.998;2023-07-29T18:19:03;2.10;;;1.70;;
19402;SDS011;9837;48.888;8.998;2023-07-29T18:21:45;2.42;;;1.63;;
19402;SDS011;9837;48.888;8.998;2023-07-29T18:24:11;1.80;;;1.60;;
19402;SDS011;9837;48.888;8.998;2023-07-29T18:26:37;1.60;;;1.50;;
19402;SDS011;9837;48.888;8.998;2023-07-29T18:29:07;1.98;;;1.70;;
19402;SDS011;9837;48.888;8.998;2023-07-29T18:31:33;1.50;;;1.40;;
19402;SDS011;9837;48.888;8.998;2023-07-29T18:33:59;1.88;;;1.50;;
19402;SDS011;9837;48.888;8.998;2023-07-29T18:36:25;1.80;;;1.70;;
19402;SDS011;9837;48.888;8.998;2023-07-29T18:39:09;2.42;;;1.92;;
19402;SDS011;9837;48.888;8.998;2023-07-29T18:49:41;2.10;;;1.90;;
19402;SDS011;9837;48.888;8.998;2023-07-29T18:54:45;2.03;;;1.90;;
19402;SDS011;9837;48.888;8.998;2023-07-29T19:00:17;5.10;;;1.80;;
19402;SDS011;9837;48.888;8.998;2023-07-29T19:03:03;2.20;;;2.00;;
19402;SDS011;9837;48.888;8.998;2023-07-29T19:05:48;2.43;;;1.90;;
19402;SDS011;9837;48.888;8.998;2023-07-29T19:08:14;2.30;;;1.70;;
19402;SDS011;9837;48.888;8.998;2023-07-29T19:13:15;2.00;;;1.80;;
19402;SDS011;9837;48.888;8.998;2023-07-29T19:24:07;1.80;;;1.70;;
19402;SDS011;9837;48.888;8.998;2023-07-29T19:26:49;1.70;;;1.60;;
19402;SDS011;9837;48.888;8.998;2023-07-29T19:29:44;1.70;;;1.50;;
19402;SDS011;9837;48.888;8.998;2023-07-29T19:33:08;1.93;;;1.73;;
19402;SDS011;9837;48.888;8.998;2023-07-29T19:35:55;3.07;;;1.80;;
19402;SDS011;9837;48.888;8.998;2023-07-29T19:41:42;1.80;;;1.70;;
19402;SDS011;9837;48.888;8.998;2023-07-29T19:46:44;2.03;;;1.80;;
19402;SDS011;9837;48.888;8.998;2023-07-29T20:00:15;2.97;;;2.13;;
19402;SDS011;9837;48.888;8.998;2023-07-29T20:03:37;2.10;;;1.90;;
19402;SDS011;9837;48.888;8.998;2023-07-29T20:11:33;2.20;;;2.00;;
19402;SDS011;9837;48.888;8.998;2023-07-29T20:25:52;2.70;;;2.30;;
19402;SDS011;9837;48.888;8.998;2023-07-29T20:35:36;2.33;;;2.13;;
19402;SDS011;9837;48.888;8.998;2023-07-29T20:39:07;2.23;;;2.03;;
19402;SDS011;9837;48.888;8.998;2023-07-29T20:42:31;5.00;;;2.40;;
19402;SDS011;9837;48.888;8.998;2023-07-29T20:45:40;3.07;;;2.50;;
19402;SDS011;9837;48.888;8.998;2023-07-29T20:48:09;4.93;;;2.67;;
19402;SDS011;9837;48.888;8.998;2023-07-29T20:51:23;3.20;;;2.83;;
19402;SDS011;9837;48.888;8.998;2023-07-29T20:57:24;3.50;;;2.80;;
19402;SDS011;9837;48.888;8.998;2023-07-29T21:42:49;3.47;;;3.17;;
19402;SDS011;9837;48.888;8.998;2023-07-29T21:58:34;3.30;;;3.00;;
19402;SDS011;9837;48.888;8.998;2023-07-29T22:01:20;3.00;;;2.70;;
19402;SDS011;9837;48.888;8.998;2023-07-29T22:10:00;7.27;;;2.90;;
19402;SDS011;9837;48.888;8.998;2023-07-29T22:13:28;3.53;;;3.20;;
19402;SDS011;9837;48.888;8.998;2023-07-29T22:24:35;3.90;;;3.53;;
19402;SDS011;9837;48.888;8.998;2023-07-29T22:38:00;3.47;;;3.17;;
19402;SDS011;9837;48.888;8.998;2023-07-29T22:48:13;4.40;;;3.37;;
19402;SDS011;9837;48.888;8.998;2023-07-29T22:56:49;4.13;;;3.00;;
19402;SDS011;9837;48.888;8.998;2023-07-29T22:59:17;5.60;;;3.17;;
19402;SDS011;9837;48.888;8.998;2023-07-29T23:02:46;7.40;;;3.30;;
19402;SDS011;9837;48.888;8.998;2023-07-29T23:05:18;3.33;;;3.03;;
19402;SDS011;9837;48.888;8.998;2023-07-29T23:07:56;4.10;;;3.20;;
19402;SDS011;9837;48.888;8.998;2023-07-29T23:14:11;4.10;;;3.10;;
19402;SDS011;9837;48.888;8.998;2023-07-29T23:16:37;3.77;;;2.70;;
19402;SDS011;9837;48.888;8.998;2023-07-29T23:19:38;4.47;;;2.63;;
19402;SDS011;9837;48.888;8.998;2023-07-29T23:22:04;3.80;;;2.33;;
19402;SDS011;9837;48.888;8.998;2023-07-29T23:24:30;3.23;;;2.40;;
19402;SDS011;9837;48.888;8.998;2023-07-29T23:27:35;3.17;;;2.47;;
19402;SDS011;9837;48.888;8.998;2023-07-29T23:30:01;4.20;;;2.30;;
19402;SDS011;9837;48.888;8.998;2023-07-29T23:32:39;5.97;;;2.10;;
19402;SDS011;9837;48.888;8.998;2023-07-29T23:35:34;2.43;;;2.23;;
19402;SDS011;9837;48.888;8.998;2023-07-29T23:38:09;3.33;;;2.33;;
19402;SDS011;9837;48.888;8.998;2023-07-29T23:41:02;3.20;;;2.30;;
19402;SDS011;9837;48.888;8.998;2023-07-29T23:43:53;2.40;;;2.20;;
19402;SDS011;9837;48.888;8.998;2023-07-29T23:46:22;2.73;;;2.10;;
19402;SDS011;9837;48.888;8.998;2023-07-29T23:49:27;3.07;;;1.87;;
19402;SDS011;9837;48.888;8.998;2023-07-29T23:51:53;3.93;;;2.20;;
19402;SDS011;9837;48.888;8.998;2023-07-29T23:54:19;2.07;;;1.87;;
19402;SDS011;9837;48.888;8.998;2023-07-29T23:56:54;2.37;;;2.00;;
19402;SDS011;9837;48.888;8.998;2023-07-29T23:59:35;2.57;;;1.90;;
